Terminal Aerodrome Forecast
Issued by NWS Shreveport, LA

Home | Current Version | Previous Version | Text Only | Print | Product List | Glossary On
Versions: 1 2 3 4 5 6 7 8 9 10 11 12 13 14 15 16 17 18 19 20 21 22
913
FTUS44 KSHV 161142
TAFLFK
TAF
KLFK 161142Z 1612/1712 15010KT 5SM -SHRA BR OVC008
      TEMPO 1612/1614 6SM -RA BR SCT008 BKN014
     FM161500 16009KT P6SM -RA SCT008 OVC014
     FM161800 18011KT P6SM VCSH BKN020
     FM162000 18010KT P6SM VCSH BKN035
     FM170300 14004KT P6SM BKN015
     FM170500 VRB04KT 5SM BR OVC007
     FM170800 VRB04KT 2SM BR OVC003=

USA.gov is the U.S. government's official web portal to all federal, state and local government web resources and services.